sensor_id;sensor_type;location;lat;lon;timestamp;temperature;humidity
10231;DHT22;62604;49.432;8.680;2023-06-10T00:01:52;22.30;23.20
10231;DHT22;62604;49.432;8.680;2023-06-10T00:04:23;22.30;23.20
10231;DHT22;62604;49.432;8.680;2023-06-10T00:06:50;22.20;23.60
10231;DHT22;62604;49.432;8.680;2023-06-10T00:09:17;22.10;23.60
10231;DHT22;62604;49.432;8.680;2023-06-10T00:11:44;22.20;23.50
10231;DHT22;62604;49.432;8.680;2023-06-10T00:14:13;22.30;23.50
10231;DHT22;62604;49.432;8.680;2023-06-10T00:16:41;22.20;23.50
10231;DHT22;62604;49.432;8.680;2023-06-10T00:19:10;22.30;23.70
10231;DHT22;62604;49.432;8.680;2023-06-10T00:21:39;22.20;23.80
10231;DHT22;62604;49.432;8.680;2023-06-10T00:24:07;22.20;23.80
10231;DHT22;62604;49.432;8.680;2023-06-10T00:26:37;22.10;23.80
10231;DHT22;62604;49.432;8.680;2023-06-10T00:29:04;22.20;23.80
10231;DHT22;62604;49.432;8.680;2023-06-10T00:31:33;22.10;23.90
10231;DHT22;62604;49.432;8.680;2023-06-10T00:34:00;22.10;23.80
10231;DHT22;62604;49.432;8.680;2023-06-10T00:36:29;22.10;23.90
10231;DHT22;62604;49.432;8.680;2023-06-10T00:38:56;22.10;24.10
10231;DHT22;62604;49.432;8.680;2023-06-10T00:41:25;22.00;24.10
10231;DHT22;62604;49.432;8.680;2023-06-10T00:43:57;22.00;24.40
10231;DHT22;62604;49.432;8.680;2023-06-10T00:46:25;21.90;24.40
10231;DHT22;62604;49.432;8.680;2023-06-10T00:48:57;21.90;24.40
10231;DHT22;62604;49.432;8.680;2023-06-10T00:51:27;22.00;24.40
10231;DHT22;62604;49.432;8.680;2023-06-10T00:53:54;22.00;24.40
10231;DHT22;62604;49.432;8.680;2023-06-10T00:56:22;22.00;24.30
10231;DHT22;62604;49.432;8.680;2023-06-10T00:58:49;22.00;24.70
10231;DHT22;62604;49.432;8.680;2023-06-10T01:01:16;22.00;24.40
10231;DHT22;62604;49.432;8.680;2023-06-10T01:03:43;22.00;25.20
10231;DHT22;62604;49.432;8.680;2023-06-10T01:06:18;22.00;24.50
10231;DHT22;62604;49.432;8.680;2023-06-10T01:08:54;22.00;24.40
10231;DHT22;62604;49.432;8.680;2023-06-10T01:11:28;21.90;24.50
10231;DHT22;62604;49.432;8.680;2023-06-10T01:13:55;22.00;24.30
10231;DHT22;62604;49.432;8.680;2023-06-10T01:16:23;22.00;24.40
10231;DHT22;62604;49.432;8.680;2023-06-10T01:18:51;22.00;24.10
10231;DHT22;62604;49.432;8.680;2023-06-10T01:21:21;22.10;24.10
10231;DHT22;62604;49.432;8.680;2023-06-10T01:23:50;22.10;23.90
10231;DHT22;62604;49.432;8.680;2023-06-10T01:26:20;22.10;23.80
10231;DHT22;62604;49.432;8.680;2023-06-10T01:28:51;22.10;24.00
10231;DHT22;62604;49.432;8.680;2023-06-10T01:31:31;22.10;24.00
10231;DHT22;62604;49.432;8.680;2023-06-10T01:34:00;22.10;24.30
10231;DHT22;62604;49.432;8.680;2023-06-10T01:36:29;22.00;24.30
10231;DHT22;62604;49.432;8.680;2023-06-10T01:38:58;22.00;24.70
10231;DHT22;62604;49.432;8.680;2023-06-10T01:41:26;21.90;24.50
10231;DHT22;62604;49.432;8.680;2023-06-10T01:43:54;21.90;24.70
10231;DHT22;62604;49.432;8.680;2023-06-10T01:46:21;21.90;25.10
10231;DHT22;62604;49.432;8.680;2023-06-10T01:48:48;21.50;26.40
10231;DHT22;62604;49.432;8.680;2023-06-10T01:51:15;21.20;27.60
10231;DHT22;62604;49.432;8.680;2023-06-10T01:53:44;20.90;28.40
10231;DHT22;62604;49.432;8.680;2023-06-10T01:56:11;20.70;29.00
10231;DHT22;62604;49.432;8.680;2023-06-10T01:58:42;20.50;29.70
10231;DHT22;62604;49.432;8.680;2023-06-10T02:01:10;20.30;30.50
10231;DHT22;62604;49.432;8.680;2023-06-10T02:03:37;20.10;31.20
10231;DHT22;62604;49.432;8.680;2023-06-10T02:06:04;19.90;31.80
10231;DHT22;62604;49.432;8.680;2023-06-10T02:08:32;19.70;32.20
10231;DHT22;62604;49.432;8.680;2023-06-10T02:11:00;19.60;33.10
10231;DHT22;62604;49.432;8.680;2023-06-10T02:13:27;19.50;33.20
10231;DHT22;62604;49.432;8.680;2023-06-10T02:15:54;19.40;33.60
10231;DHT22;62604;49.432;8.680;2023-06-10T02:18:21;19.40;33.50
10231;DHT22;62604;49.432;8.680;2023-06-10T02:20:48;19.40;34.30
10231;DHT22;62604;49.432;8.680;2023-06-10T02:23:15;19.30;35.30
10231;DHT22;62604;49.432;8.680;2023-06-10T02:25:42;19.20;35.50
10231;DHT22;62604;49.432;8.680;2023-06-10T02:28:10;19.10;35.70
10231;DHT22;62604;49.432;8.680;2023-06-10T02:30:39;19.00;36.60
10231;DHT22;62604;49.432;8.680;2023-06-10T02:33:06;18.90;36.70
10231;DHT22;62604;49.432;8.680;2023-06-10T02:35:35;18.80;37.50
10231;DHT22;62604;49.432;8.680;2023-06-10T02:38:02;18.80;38.70
10231;DHT22;62604;49.432;8.680;2023-06-10T02:40:29;18.80;38.10
10231;DHT22;62604;49.432;8.680;2023-06-10T02:42:56;18.80;38.40
10231;DHT22;62604;49.432;8.680;2023-06-10T02:45:25;18.80;38.60
10231;DHT22;62604;49.432;8.680;2023-06-10T02:47:52;18.70;38.80
10231;DHT22;62604;49.432;8.680;2023-06-10T02:50:19;18.60;39.70
10231;DHT22;62604;49.432;8.680;2023-06-10T02:52:46;18.60;39.90
10231;DHT22;62604;49.432;8.680;2023-06-10T02:55:13;18.60;40.90
10231;DHT22;62604;49.432;8.680;2023-06-10T02:57:42;18.50;40.90
10231;DHT22;62604;49.432;8.680;2023-06-10T03:00:13;18.50;41.30
10231;DHT22;62604;49.432;8.680;2023-06-10T03:02:49;18.40;42.40
10231;DHT22;62604;49.432;8.680;2023-06-10T03:05:16;18.40;42.60
10231;DHT22;62604;49.432;8.680;2023-06-10T03:07:43;18.30;43.60
10231;DHT22;62604;49.432;8.680;2023-06-10T03:10:12;18.30;43.40
10231;DHT22;62604;49.432;8.680;2023-06-10T03:12:39;18.30;44.00
10231;DHT22;62604;49.432;8.680;2023-06-10T03:15:07;18.20;45.20
10231;DHT22;62604;49.432;8.680;2023-06-10T03:17:34;18.20;45.00
10231;DHT22;62604;49.432;8.680;2023-06-10T03:20:03;18.10;45.50
10231;DHT22;62604;49.432;8.680;2023-06-10T03:22:31;18.00;47.00
10231;DHT22;62604;49.432;8.680;2023-06-10T03:24:58;18.00;46.90
10231;DHT22;62604;49.432;8.680;2023-06-10T03:27:25;18.00;47.90
10231;DHT22;62604;49.432;8.680;2023-06-10T03:29:52;18.00;48.50
10231;DHT22;62604;49.432;8.680;2023-06-10T03:32:19;17.90;47.70
10231;DHT22;62604;49.432;8.680;2023-06-10T03:34:46;17.90;48.70
10231;DHT22;62604;49.432;8.680;2023-06-10T03:37:14;17.90;49.60
10231;DHT22;62604;49.432;8.680;2023-06-10T03:39:42;17.80;50.80
10231;DHT22;62604;49.432;8.680;2023-06-10T03:42:08;17.90;50.60
10231;DHT22;62604;49.432;8.680;2023-06-10T03:44:35;17.80;50.60
10231;DHT22;62604;49.432;8.680;2023-06-10T03:47:03;17.80;51.50
10231;DHT22;62604;49.432;8.680;2023-06-10T03:49:30;17.80;51.30
10231;DHT22;62604;49.432;8.680;2023-06-10T03:51:58;17.90;51.40
10231;DHT22;62604;49.432;8.680;2023-06-10T03:54:27;17.90;51.50
10231;DHT22;62604;49.432;8.680;2023-06-10T03:56:54;17.80;52.30
10231;DHT22;62604;49.432;8.680;2023-06-10T03:59:21;17.80;52.70
10231;DHT22;62604;49.432;8.680;2023-06-10T04:01:48;17.90;52.50
10231;DHT22;62604;49.432;8.680;2023-06-10T04:04:15;17.90;53.20
10231;DHT22;62604;49.432;8.680;2023-06-10T04:06:43;17.80;53.90
10231;DHT22;62604;49.432;8.680;2023-06-10T04:09:10;17.80;53.80
10231;DHT22;62604;49.432;8.680;2023-06-10T04:11:38;17.80;54.10
10231;DHT22;62604;49.432;8.680;2023-06-10T04:14:05;17.80;55.40
10231;DHT22;62604;49.432;8.680;2023-06-10T04:16:33;17.80;56.00
10231;DHT22;62604;49.432;8.680;2023-06-10T04:19:01;17.80;56.40
10231;DHT22;62604;49.432;8.680;2023-06-10T04:21:28;17.70;57.70
10231;DHT22;62604;49.432;8.680;2023-06-10T04:23:58;17.70;58.30
10231;DHT22;62604;49.432;8.680;2023-06-10T04:26:26;17.70;58.70
10231;DHT22;62604;49.432;8.680;2023-06-10T04:29:03;17.70;58.60
10231;DHT22;62604;49.432;8.680;2023-06-10T04:31:32;17.70;61.30
10231;DHT22;62604;49.432;8.680;2023-06-10T04:34:02;17.70;60.40
10231;DHT22;62604;49.432;8.680;2023-06-10T04:36:30;17.70;62.30
10231;DHT22;62604;49.432;8.680;2023-06-10T04:39:03;17.70;62.10
10231;DHT22;62604;49.432;8.680;2023-06-10T04:41:33;17.70;62.70
10231;DHT22;62604;49.432;8.680;2023-06-10T04:44:08;17.70;63.20
10231;DHT22;62604;49.432;8.680;2023-06-10T04:46:36;17.70;64.30
10231;DHT22;62604;49.432;8.680;2023-06-10T04:49:03;17.70;69.20
10231;DHT22;62604;49.432;8.680;2023-06-10T04:51:34;17.70;67.30
10231;DHT22;62604;49.432;8.680;2023-06-10T04:54:03;17.80;64.00
10231;DHT22;62604;49.432;8.680;2023-06-10T04:56:36;17.90;67.00
10231;DHT22;62604;49.432;8.680;2023-06-10T04:59:04;17.90;67.70
10231;DHT22;62604;49.432;8.680;2023-06-10T05:01:32;18.10;63.30
10231;DHT22;62604;49.432;8.680;2023-06-10T05:03:59;18.20;62.80
10231;DHT22;62604;49.432;8.680;2023-06-10T05:06:26;18.20;64.80
10231;DHT22;62604;49.432;8.680;2023-06-10T05:08:53;18.30;62.60
10231;DHT22;62604;49.432;8.680;2023-06-10T05:11:20;18.40;61.50
10231;DHT22;62604;49.432;8.680;2023-06-10T05:13:47;18.50;60.30
10231;DHT22;62604;49.432;8.680;2023-06-10T05:16:15;18.70;60.50
10231;DHT22;62604;49.432;8.680;2023-06-10T05:18:42;18.80;59.70
10231;DHT22;62604;49.432;8.680;2023-06-10T05:21:10;18.90;59.40
10231;DHT22;62604;49.432;8.680;2023-06-10T05:23:37;19.00;61.10
10231;DHT22;62604;49.432;8.680;2023-06-10T05:26:04;19.00;63.60
10231;DHT22;62604;49.432;8.680;2023-06-10T05:28:31;19.10;59.80
10231;DHT22;62604;49.432;8.680;2023-06-10T05:30:57;19.30;59.20
10231;DHT22;62604;49.432;8.680;2023-06-10T05:33:26;19.40;57.40
10231;DHT22;62604;49.432;8.680;2023-06-10T05:35:53;19.60;58.00
10231;DHT22;62604;49.432;8.680;2023-06-10T05:38:21;19.70;58.00
10231;DHT22;62604;49.432;8.680;2023-06-10T05:40:48;19.80;57.50
10231;DHT22;62604;49.432;8.680;2023-06-10T05:43:15;19.90;55.50
10231;DHT22;62604;49.432;8.680;2023-06-10T05:45:43;20.10;55.50
10231;DHT22;62604;49.432;8.680;2023-06-10T05:48:10;20.20;55.00
10231;DHT22;62604;49.432;8.680;2023-06-10T05:50:38;20.40;55.60
10231;DHT22;62604;49.432;8.680;2023-06-10T05:53:08;20.50;55.10
10231;DHT22;62604;49.432;8.680;2023-06-10T05:55:40;20.70;54.90
10231;DHT22;62604;49.432;8.680;2023-06-10T05:58:07;20.90;55.30
10231;DHT22;62604;49.432;8.680;2023-06-10T06:00:34;21.00;55.90
10231;DHT22;62604;49.432;8.680;2023-06-10T06:03:02;21.10;55.00
10231;DHT22;62604;49.432;8.680;2023-06-10T06:05:30;21.30;54.40
10231;DHT22;62604;49.432;8.680;2023-06-10T06:08:01;21.50;53.50
10231;DHT22;62604;49.432;8.680;2023-06-10T06:10:28;21.70;53.90
10231;DHT22;62604;49.432;8.680;2023-06-10T06:12:55;21.70;51.90
10231;DHT22;62604;49.432;8.680;2023-06-10T06:15:22;21.50;51.60
10231;DHT22;62604;49.432;8.680;2023-06-10T06:17:51;21.50;53.00
10231;DHT22;62604;49.432;8.680;2023-06-10T06:20:19;21.90;53.00
10231;DHT22;62604;49.432;8.680;2023-06-10T06:22:46;22.20;52.50
10231;DHT22;62604;49.432;8.680;2023-06-10T06:25:19;22.10;50.30
10231;DHT22;62604;49.432;8.680;2023-06-10T06:27:51;22.20;52.10
10231;DHT22;62604;49.432;8.680;2023-06-10T06:30:21;22.50;51.80
10231;DHT22;62604;49.432;8.680;2023-06-10T06:32:51;22.20;50.70
10231;DHT22;62604;49.432;8.680;2023-06-10T06:35:21;22.40;51.10
10231;DHT22;62604;49.432;8.680;2023-06-10T06:37:49;22.60;50.60
10231;DHT22;62604;49.432;8.680;2023-06-10T06:40:18;22.80;50.40
10231;DHT22;62604;49.432;8.680;2023-06-10T06:42:45;23.20;50.50
10231;DHT22;62604;49.432;8.680;2023-06-10T06:45:12;23.70;49.30
10231;DHT22;62604;49.432;8.680;2023-06-10T06:47:40;23.80;48.20
10231;DHT22;62604;49.432;8.680;2023-06-10T06:50:11;23.90;47.50
10231;DHT22;62604;49.432;8.680;2023-06-10T06:52:39;24.10;45.50
10231;DHT22;62604;49.432;8.680;2023-06-10T06:55:06;24.00;45.40
10231;DHT22;62604;49.432;8.680;2023-06-10T06:57:35;24.30;45.60
10231;DHT22;62604;49.432;8.680;2023-06-10T07:00:03;24.80;44.90
10231;DHT22;62604;49.432;8.680;2023-06-10T07:02:30;25.20;43.30
10231;DHT22;62604;49.432;8.680;2023-06-10T07:04:58;25.30;44.20
10231;DHT22;62604;49.432;8.680;2023-06-10T07:07:26;25.50;42.80
10231;DHT22;62604;49.432;8.680;2023-06-10T07:09:53;26.30;39.30
10231;DHT22;62604;49.432;8.680;2023-06-10T07:12:20;27.20;35.10
10231;DHT22;62604;49.432;8.680;2023-06-10T07:14:51;28.90;32.60
10231;DHT22;62604;49.432;8.680;2023-06-10T07:17:18;30.00;27.70
10231;DHT22;62604;49.432;8.680;2023-06-10T07:19:46;31.20;25.50
10231;DHT22;62604;49.432;8.680;2023-06-10T07:22:22;32.20;22.70
10231;DHT22;62604;49.432;8.680;2023-06-10T07:24:49;32.60;19.90
10231;DHT22;62604;49.432;8.680;2023-06-10T07:27:17;31.30;19.50
10231;DHT22;62604;49.432;8.680;2023-06-10T07:29:44;31.50;22.10
10231;DHT22;62604;49.432;8.680;2023-06-10T07:32:13;31.80;19.90
10231;DHT22;62604;49.432;8.680;2023-06-10T07:34:39;30.70;20.90
10231;DHT22;62604;49.432;8.680;2023-06-10T07:37:06;30.70;19.70
10231;DHT22;62604;49.432;8.680;2023-06-10T07:39:34;30.20;20.60
10231;DHT22;62604;49.432;8.680;2023-06-10T07:42:01;30.50;19.30
10231;DHT22;62604;49.432;8.680;2023-06-10T07:44:28;31.20;18.90
10231;DHT22;62604;49.432;8.680;2023-06-10T07:46:55;31.00;18.40
10231;DHT22;62604;49.432;8.680;2023-06-10T07:49:24;31.50;19.90
10231;DHT22;62604;49.432;8.680;2023-06-10T07:51:53;32.30;17.00
10231;DHT22;62604;49.432;8.680;2023-06-10T07:54:20;33.10;18.00
10231;DHT22;62604;49.432;8.680;2023-06-10T07:56:47;34.10;16.20
10231;DHT22;62604;49.432;8.680;2023-06-10T07:59:14;34.80;15.00
10231;DHT22;62604;49.432;8.680;2023-06-10T08:01:41;34.30;14.10
10231;DHT22;62604;49.432;8.680;2023-06-10T08:04:08;33.10;14.60
10231;DHT22;62604;49.432;8.680;2023-06-10T08:06:37;32.40;14.10
10231;DHT22;62604;49.432;8.680;2023-06-10T08:09:04;30.60;15.70
10231;DHT22;62604;49.432;8.680;2023-06-10T08:11:31;30.10;17.30
10231;DHT22;62604;49.432;8.680;2023-06-10T08:13:58;31.80;18.70
10231;DHT22;62604;49.432;8.680;2023-06-10T08:16:25;33.10;16.20
10231;DHT22;62604;49.432;8.680;2023-06-10T08:18:51;32.80;14.00
10231;DHT22;62604;49.432;8.680;2023-06-10T08:21:19;30.70;15.40
10231;DHT22;62604;49.432;8.680;2023-06-10T08:23:47;30.70;15.90
10231;DHT22;62604;49.432;8.680;2023-06-10T08:26:14;30.90;15.60
10231;DHT22;62604;49.432;8.680;2023-06-10T08:28:41;30.70;16.80
10231;DHT22;62604;49.432;8.680;2023-06-10T08:31:08;32.40;17.40
10231;DHT22;62604;49.432;8.680;2023-06-10T08:33:35;33.90;13.80
10231;DHT22;62604;49.432;8.680;2023-06-10T08:36:02;34.80;12.70
10231;DHT22;62604;49.432;8.680;2023-06-10T08:38:29;34.30;12.50
10231;DHT22;62604;49.432;8.680;2023-06-10T08:40:59;35.40;12.40
10231;DHT22;62604;49.432;8.680;2023-06-10T08:43:32;34.60;11.90
10231;DHT22;62604;49.432;8.680;2023-06-10T08:46:00;36.00;12.00
10231;DHT22;62604;49.432;8.680;2023-06-10T08:48:29;35.70;11.50
10231;DHT22;62604;49.432;8.680;2023-06-10T08:50:57;36.80;10.30
10231;DHT22;62604;49.432;8.680;2023-06-10T08:53:26;37.50;9.70
10231;DHT22;62604;49.432;8.680;2023-06-10T08:55:54;35.80;7.50
10231;DHT22;62604;49.432;8.680;2023-06-10T08:58:26;34.20;11.20
10231;DHT22;62604;49.432;8.680;2023-06-10T09:00:54;33.20;10.20
10231;DHT22;62604;49.432;8.680;2023-06-10T09:03:21;33.70;11.30
10231;DHT22;62604;49.432;8.680;2023-06-10T09:05:51;33.80;10.60
10231;DHT22;62604;49.432;8.680;2023-06-10T09:08:18;33.40;11.70
10231;DHT22;62604;49.432;8.680;2023-06-10T09:10:45;33.60;10.70
10231;DHT22;62604;49.432;8.680;2023-06-10T09:13:12;33.90;12.50
10231;DHT22;62604;49.432;8.680;2023-06-10T09:15:42;35.50;10.70
10231;DHT22;62604;49.432;8.680;2023-06-10T09:18:10;32.80;11.20
10231;DHT22;62604;49.432;8.680;2023-06-10T09:20:38;33.00;10.50
10231;DHT22;62604;49.432;8.680;2023-06-10T09:23:06;31.40;11.50
10231;DHT22;62604;49.432;8.680;2023-06-10T09:25:37;32.60;12.10
10231;DHT22;62604;49.432;8.680;2023-06-10T09:28:08;32.70;10.50
10231;DHT22;62604;49.432;8.680;2023-06-10T09:30:39;33.10;8.70
10231;DHT22;62604;49.432;8.680;2023-06-10T09:33:11;31.00;10.70
10231;DHT22;62604;49.432;8.680;2023-06-10T09:35:45;31.50;11.20
10231;DHT22;62604;49.432;8.680;2023-06-10T09:38:14;30.80;11.00
10231;DHT22;62604;49.432;8.680;2023-06-10T09:40:49;31.50;11.80
10231;DHT22;62604;49.432;8.680;2023-06-10T09:43:16;32.40;11.60
10231;DHT22;62604;49.432;8.680;2023-06-10T09:45:43;34.10;11.20
10231;DHT22;62604;49.432;8.680;2023-06-10T09:48:12;34.90;8.60
10231;DHT22;62604;49.432;8.680;2023-06-10T09:50:42;32.70;7.60
10231;DHT22;62604;49.432;8.680;2023-06-10T09:53:10;32.50;10.50
10231;DHT22;62604;49.432;8.680;2023-06-10T09:55:38;32.90;10.20
10231;DHT22;62604;49.432;8.680;2023-06-10T09:58:05;33.00;8.50
10231;DHT22;62604;49.432;8.680;2023-06-10T10:00:32;32.00;9.30
10231;DHT22;62604;49.432;8.680;2023-06-10T10:03:00;31.70;10.20
10231;DHT22;62604;49.432;8.680;2023-06-10T10:05:28;32.60;8.40
10231;DHT22;62604;49.432;8.680;2023-06-10T10:07:56;33.60;8.40
10231;DHT22;62604;49.432;8.680;2023-06-10T10:10:23;32.70;8.20
10231;DHT22;62604;49.432;8.680;2023-06-10T10:12:54;33.80;8.90
10231;DHT22;62604;49.432;8.680;2023-06-10T10:15:24;31.70;8.00
10231;DHT22;62604;49.432;8.680;2023-06-10T10:17:56;31.20;9.60
10231;DHT22;62604;49.432;8.680;2023-06-10T10:20:29;31.30;10.00
10231;DHT22;62604;49.432;8.680;2023-06-10T10:22:57;31.20;9.80
10231;DHT22;62604;49.432;8.680;2023-06-10T10:25:28;31.90;10.90
10231;DHT22;62604;49.432;8.680;2023-06-10T10:27:58;32.90;7.60
10231;DHT22;62604;49.432;8.680;2023-06-10T10:30:27;33.70;7.10
10231;DHT22;62604;49.432;8.680;2023-06-10T10:32:58;34.50;6.40
10231;DHT22;62604;49.432;8.680;2023-06-10T10:35:28;34.60;5.90
10231;DHT22;62604;49.432;8.680;2023-06-10T10:37:56;34.20;7.50
10231;DHT22;62604;49.432;8.680;2023-06-10T10:40:25;34.60;6.10
10231;DHT22;62604;49.432;8.680;2023-06-10T10:42:52;34.90;6.70
10231;DHT22;62604;49.432;8.680;2023-06-10T10:45:21;36.00;7.20
10231;DHT22;62604;49.432;8.680;2023-06-10T10:47:52;36.00;5.20
10231;DHT22;62604;49.432;8.680;2023-06-10T10:50:21;34.90;5.50
10231;DHT22;62604;49.432;8.680;2023-06-10T10:52:55;34.70;6.50
10231;DHT22;62604;49.432;8.680;2023-06-10T10:55:23;34.20;4.80
10231;DHT22;62604;49.432;8.680;2023-06-10T10:57:54;34.50;6.10
10231;DHT22;62604;49.432;8.680;2023-06-10T11:00:27;33.00;7.10
10231;DHT22;62604;49.432;8.680;2023-06-10T11:02:58;32.50;7.60
10231;DHT22;62604;49.432;8.680;2023-06-10T11:05:35;31.00;8.60
10231;DHT22;62604;49.432;8.680;2023-06-10T11:08:04;30.50;9.90
10231;DHT22;62604;49.432;8.680;2023-06-10T11:10:32;31.80;10.00
10231;DHT22;62604;49.432;8.680;2023-06-10T11:13:00;32.70;10.60
10231;DHT22;62604;49.432;8.680;2023-06-10T11:15:32;33.00;8.30
10231;DHT22;62604;49.432;8.680;2023-06-10T11:18:19;32.90;8.00
10231;DHT22;62604;49.432;8.680;2023-06-10T11:20:58;33.50;8.90
10231;DHT22;62604;49.432;8.680;2023-06-10T11:23:40;34.10;6.30
10231;DHT22;62604;49.432;8.680;2023-06-10T11:26:15;34.20;6.20
10231;DHT22;62604;49.432;8.680;2023-06-10T11:29:01;34.30;5.60
10231;DHT22;62604;49.432;8.680;2023-06-10T11:31:30;33.50;7.10
10231;DHT22;62604;49.432;8.680;2023-06-10T11:33:58;32.30;7.40
10231;DHT22;62604;49.432;8.680;2023-06-10T11:36:27;32.20;9.10
10231;DHT22;62604;49.432;8.680;2023-06-10T11:38:57;31.10;9.70
10231;DHT22;62604;49.432;8.680;2023-06-10T11:41:24;30.50;10.10
10231;DHT22;62604;49.432;8.680;2023-06-10T11:43:52;31.10;10.50
10231;DHT22;62604;49.432;8.680;2023-06-10T11:46:19;31.30;9.70
10231;DHT22;62604;49.432;8.680;2023-06-10T11:48:49;30.60;10.50
10231;DHT22;62604;49.432;8.680;2023-06-10T11:51:16;29.90;11.40
10231;DHT22;62604;49.432;8.680;2023-06-10T11:53:44;30.00;12.80
10231;DHT22;62604;49.432;8.680;2023-06-10T11:56:12;30.00;12.50
10231;DHT22;62604;49.432;8.680;2023-06-10T11:58:43;30.80;11.90
10231;DHT22;62604;49.432;8.680;2023-06-10T12:01:19;32.20;10.20
10231;DHT22;62604;49.432;8.680;2023-06-10T12:03:47;32.60;7.70
10231;DHT22;62604;49.432;8.680;2023-06-10T12:06:14;31.80;8.70
10231;DHT22;62604;49.432;8.680;2023-06-10T12:08:42;31.70;10.40
10231;DHT22;62604;49.432;8.680;2023-06-10T12:11:09;31.90;10.40
10231;DHT22;62604;49.432;8.680;2023-06-10T12:13:45;32.00;11.40
10231;DHT22;62604;49.432;8.680;2023-06-10T12:16:14;32.10;8.80
10231;DHT22;62604;49.432;8.680;2023-06-10T12:18:45;32.80;8.60
10231;DHT22;62604;49.432;8.680;2023-06-10T12:21:19;32.90;8.40
10231;DHT22;62604;49.432;8.680;2023-06-10T12:24:03;32.70;9.20
10231;DHT22;62604;49.432;8.680;2023-06-10T12:26:38;34.80;7.10
10231;DHT22;62604;49.432;8.680;2023-06-10T12:29:21;34.40;6.30
10231;DHT22;62604;49.432;8.680;2023-06-10T12:31:57;32.50;7.90
10231;DHT22;62604;49.432;8.680;2023-06-10T12:34:31;33.00;9.20
10231;DHT22;62604;49.432;8.680;2023-06-10T12:36:59;33.70;8.20
10231;DHT22;62604;49.432;8.680;2023-06-10T12:39:26;34.40;6.50
10231;DHT22;62604;49.432;8.680;2023-06-10T12:41:53;33.30;7.00
10231;DHT22;62604;49.432;8.680;2023-06-10T12:44:30;33.60;6.50
10231;DHT22;62604;49.432;8.680;2023-06-10T12:46:57;33.50;8.40
10231;DHT22;62604;49.432;8.680;2023-06-10T12:49:24;32.60;6.70
10231;DHT22;62604;49.432;8.680;2023-06-10T12:51:52;31.90;8.60
10231;DHT22;62604;49.432;8.680;2023-06-10T12:54:19;31.10;8.80
10231;DHT22;62604;49.432;8.680;2023-06-10T12:56:46;30.10;10.70
10231;DHT22;62604;49.432;8.680;2023-06-10T12:59:13;29.90;11.00
10231;DHT22;62604;49.432;8.680;2023-06-10T13:01:42;29.40;11.80
10231;DHT22;62604;49.432;8.680;2023-06-10T13:04:09;29.50;11.60
10231;DHT22;62604;49.432;8.680;2023-06-10T13:06:37;30.40;12.80
10231;DHT22;62604;49.432;8.680;2023-06-10T13:09:05;31.40;10.50
10231;DHT22;62604;49.432;8.680;2023-06-10T13:11:33;31.90;9.40
10231;DHT22;62604;49.432;8.680;2023-06-10T13:14:01;32.30;9.00
10231;DHT22;62604;49.432;8.680;2023-06-10T13:16:28;31.70;10.40
10231;DHT22;62604;49.432;8.680;2023-06-10T13:18:56;32.80;9.00
10231;DHT22;62604;49.432;8.680;2023-06-10T13:21:23;33.90;7.00
10231;DHT22;62604;49.432;8.680;2023-06-10T13:23:50;32.50;7.10
10231;DHT22;62604;49.432;8.680;2023-06-10T13:26:17;33.00;8.10
10231;DHT22;62604;49.432;8.680;2023-06-10T13:28:44;33.00;7.00
10231;DHT22;62604;49.432;8.680;2023-06-10T13:31:11;33.30;7.10
10231;DHT22;62604;49.432;8.680;2023-06-10T13:33:38;33.90;7.40
10231;DHT22;62604;49.432;8.680;2023-06-10T13:36:07;33.50;5.50
10231;DHT22;62604;49.432;8.680;2023-06-10T13:38:34;33.10;6.20
10231;DHT22;62604;49.432;8.680;2023-06-10T13:41:01;32.30;7.30
10231;DHT22;62604;49.432;8.680;2023-06-10T13:43:27;32.80;8.10
10231;DHT22;62604;49.432;8.680;2023-06-10T13:45:55;33.00;6.00
10231;DHT22;62604;49.432;8.680;2023-06-10T13:48:22;33.30;6.30
10231;DHT22;62604;49.432;8.680;2023-06-10T13:50:49;33.20;7.00
10231;DHT22;62604;49.432;8.680;2023-06-10T13:53:18;32.00;7.30
10231;DHT22;62604;49.432;8.680;2023-06-10T13:55:45;32.40;7.30
10231;DHT22;62604;49.432;8.680;2023-06-10T13:58:12;32.70;7.50
10231;DHT22;62604;49.432;8.680;2023-06-10T14:00:39;32.40;6.70
10231;DHT22;62604;49.432;8.680;2023-06-10T14:03:07;32.70;6.30
10231;DHT22;62604;49.432;8.680;2023-06-10T14:05:34;33.00;5.60
10231;DHT22;62604;49.432;8.680;2023-06-10T14:08:01;33.00;5.40
10231;DHT22;62604;49.432;8.680;2023-06-10T14:10:30;31.50;6.60
10231;DHT22;62604;49.432;8.680;2023-06-10T14:12:57;31.90;7.90
10231;DHT22;62604;49.432;8.680;2023-06-10T14:15:23;31.10;7.40
10231;DHT22;62604;49.432;8.680;2023-06-10T14:17:50;30.90;8.60
10231;DHT22;62604;49.432;8.680;2023-06-10T14:20:17;31.10;8.50
10231;DHT22;62604;49.432;8.680;2023-06-10T14:22:44;31.20;7.70
10231;DHT22;62604;49.432;8.680;2023-06-10T14:25:11;31.40;7.80
10231;DHT22;62604;49.432;8.680;2023-06-10T14:27:39;31.90;7.70
10231;DHT22;62604;49.432;8.680;2023-06-10T14:30:08;32.20;7.50
10231;DHT22;62604;49.432;8.680;2023-06-10T14:32:34;31.60;7.70
10231;DHT22;62604;49.432;8.680;2023-06-10T14:35:02;32.50;8.50
10231;DHT22;62604;49.432;8.680;2023-06-10T14:37:29;32.20;8.40
10231;DHT22;62604;49.432;8.680;2023-06-10T14:39:56;32.70;8.10
10231;DHT22;62604;49.432;8.680;2023-06-10T14:42:23;32.30;7.70
10231;DHT22;62604;49.432;8.680;2023-06-10T14:44:51;32.30;7.60
10231;DHT22;62604;49.432;8.680;2023-06-10T14:47:18;32.10;7.20
10231;DHT22;62604;49.432;8.680;2023-06-10T14:49:45;31.50;8.60
10231;DHT22;62604;49.432;8.680;2023-06-10T14:52:12;31.10;9.90
10231;DHT22;62604;49.432;8.680;2023-06-10T14:54:39;30.60;9.50
10231;DHT22;62604;49.432;8.680;2023-06-10T14:57:06;30.30;10.10
10231;DHT22;62604;49.432;8.680;2023-06-10T14:59:33;29.80;10.00
10231;DHT22;62604;49.432;8.680;2023-06-10T15:02:01;29.40;10.30
10231;DHT22;62604;49.432;8.680;2023-06-10T15:04:28;29.40;10.90
10231;DHT22;62604;49.432;8.680;2023-06-10T15:06:55;29.10;11.10
10231;DHT22;62604;49.432;8.680;2023-06-10T15:09:22;29.00;11.70
10231;DHT22;62604;49.432;8.680;2023-06-10T15:11:49;29.30;11.80
10231;DHT22;62604;49.432;8.680;2023-06-10T15:14:16;29.50;10.70
10231;DHT22;62604;49.432;8.680;2023-06-10T15:16:43;30.00;10.90
10231;DHT22;62604;49.432;8.680;2023-06-10T15:19:11;30.40;10.20
10231;DHT22;62604;49.432;8.680;2023-06-10T15:21:38;30.80;10.30
10231;DHT22;62604;49.432;8.680;2023-06-10T15:24:06;30.70;9.90
10231;DHT22;62604;49.432;8.680;2023-06-10T15:26:33;30.70;10.50
10231;DHT22;62604;49.432;8.680;2023-06-10T15:29:00;30.50;10.20
10231;DHT22;62604;49.432;8.680;2023-06-10T15:31:30;30.30;10.30
10231;DHT22;62604;49.432;8.680;2023-06-10T15:33:57;30.30;9.80
10231;DHT22;62604;49.432;8.680;2023-06-10T15:36:26;30.20;9.90
10231;DHT22;62604;49.432;8.680;2023-06-10T15:38:53;30.20;10.10
10231;DHT22;62604;49.432;8.680;2023-06-10T15:41:20;30.40;10.70
10231;DHT22;62604;49.432;8.680;2023-06-10T15:43:47;30.40;10.40